sensor_id;sensor_type;location;lat;lon;timestamp;pressure;altitude;pressure_sealevel;temperature;humidity
55187;BME280;55457;52.002;5.464;2023-10-13T00:00:33;100948.38;;;21.60;77.62
55187;BME280;55457;52.002;5.464;2023-10-13T00:03:04;100951.06;;;21.60;77.36
55187;BME280;55457;52.002;5.464;2023-10-13T00:05:31;100945.09;;;21.58;77.98
55187;BME280;55457;52.002;5.464;2023-10-13T00:07:59;100950.53;;;21.58;78.05
55187;BME280;55457;52.002;5.464;2023-10-13T00:10:28;100945.09;;;21.58;78.01
55187;BME280;55457;52.002;5.464;2023-10-13T00:12:54;100935.06;;;21.59;77.68
55187;BME280;55457;52.002;5.464;2023-10-13T00:15:30;100929.63;;;21.59;77.65
55187;BME280;55457;52.002;5.464;2023-10-13T00:17:58;100927.75;;;21.59;77.49
55187;BME280;55457;52.002;5.464;2023-10-13T00:20:24;100922.91;;;21.61;77.62
55187;BME280;55457;52.002;5.464;2023-10-13T00:23:03;100928.34;;;21.61;78.04
55187;BME280;55457;52.002;5.464;2023-10-13T00:25:29;100933.75;;;21.61;77.55
55187;BME280;55457;52.002;5.464;2023-10-13T00:28:08;100932.84;;;21.56;78.06
55187;BME280;55457;52.002;5.464;2023-10-13T00:30:34;100928.50;;;21.55;78.31
55187;BME280;55457;52.002;5.464;2023-10-13T00:32:59;100929.31;;;21.55;77.94
55187;BME280;55457;52.002;5.464;2023-10-13T00:35:29;100915.75;;;21.55;78.15
55187;BME280;55457;52.002;5.464;2023-10-13T00:37:57;100918.47;;;21.55;78.05
55187;BME280;55457;52.002;5.464;2023-10-13T00:40:29;100909.28;;;21.56;78.30
55187;BME280;55457;52.002;5.464;2023-10-13T00:42:56;100906.31;;;21.58;77.72
55187;BME280;55457;52.002;5.464;2023-10-13T00:45:33;100906.31;;;21.58;77.72
55187;BME280;55457;52.002;5.464;2023-10-13T00:47:59;100906.06;;;21.59;77.56
55187;BME280;55457;52.002;5.464;2023-10-13T00:50:26;100899.00;;;21.58;77.87
55187;BME280;55457;52.002;5.464;2023-10-13T00:52:52;100892.50;;;21.59;77.92
55187;BME280;55457;52.002;5.464;2023-10-13T00:55:19;100891.19;;;21.62;77.76
55187;BME280;55457;52.002;5.464;2023-10-13T00:57:53;100898.50;;;21.61;77.71
55187;BME280;55457;52.002;5.464;2023-10-13T01:00:19;100888.47;;;21.62;77.21
55187;BME280;55457;52.002;5.464;2023-10-13T01:02:52;100881.16;;;21.62;77.42
55187;BME280;55457;52.002;5.464;2023-10-13T01:05:44;100877.03;;;21.60;78.11
55187;BME280;55457;52.002;5.464;2023-10-13T01:08:10;100878.66;;;21.61;77.69
55187;BME280;55457;52.002;5.464;2023-10-13T01:10:37;100870.53;;;21.61;77.57
55187;BME280;55457;52.002;5.464;2023-10-13T01:13:06;100867.81;;;21.61;77.59
55187;BME280;55457;52.002;5.464;2023-10-13T01:15:32;100875.72;;;21.62;77.61
55187;BME280;55457;52.002;5.464;2023-10-13T01:18:11;100869.50;;;21.62;77.41
55187;BME280;55457;52.002;5.464;2023-10-13T01:20:42;100859.47;;;21.62;77.48
55187;BME280;55457;52.002;5.464;2023-10-13T01:23:13;100870.31;;;21.62;77.41
55187;BME280;55457;52.002;5.464;2023-10-13T01:25:45;100846.72;;;21.63;77.91
55187;BME280;55457;52.002;5.464;2023-10-13T01:28:11;100843.19;;;21.62;77.65
55187;BME280;55457;52.002;5.464;2023-10-13T01:30:42;100843.19;;;21.62;77.68
55187;BME280;55457;52.002;5.464;2023-10-13T01:33:07;100843.19;;;21.62;77.46
55187;BME280;55457;52.002;5.464;2023-10-13T01:35:34;100844.00;;;21.63;77.62
55187;BME280;55457;52.002;5.464;2023-10-13T01:38:07;100839.41;;;21.63;77.38
55187;BME280;55457;52.002;5.464;2023-10-13T01:40:34;100840.22;;;21.64;77.58
55187;BME280;55457;52.002;5.464;2023-10-13T01:43:00;100828.56;;;21.63;77.32
55187;BME280;55457;52.002;5.464;2023-10-13T01:45:25;100828.56;;;21.63;77.33
55187;BME280;55457;52.002;5.464;2023-10-13T01:47:54;100830.19;;;21.65;77.55
55187;BME280;55457;52.002;5.464;2023-10-13T01:50:19;100822.03;;;21.65;77.46
55187;BME280;55457;52.002;5.464;2023-10-13T01:53:02;100824.75;;;21.65;77.55
55187;BME280;55457;52.002;5.464;2023-10-13T01:55:40;100814.16;;;21.63;77.31
55187;BME280;55457;52.002;5.464;2023-10-13T01:58:12;100816.06;;;21.62;77.27
55187;BME280;55457;52.002;5.464;2023-10-13T02:00:44;100816.06;;;21.62;77.40
55187;BME280;55457;52.002;5.464;2023-10-13T02:03:11;100815.00;;;21.63;77.35
55187;BME280;55457;52.002;5.464;2023-10-13T02:05:47;100812.28;;;21.63;77.34
55187;BME280;55457;52.002;5.464;2023-10-13T02:08:17;100805.22;;;21.62;77.56
55187;BME280;55457;52.002;5.464;2023-10-13T02:10:52;100803.31;;;21.63;77.27
55187;BME280;55457;52.002;5.464;2023-10-13T02:13:19;100806.84;;;21.63;77.57
55187;BME280;55457;52.002;5.464;2023-10-13T02:15:46;100802.50;;;21.62;77.77
55187;BME280;55457;52.002;5.464;2023-10-13T02:18:16;100798.97;;;21.62;77.59
55187;BME280;55457;52.002;5.464;2023-10-13T02:20:55;100793.56;;;21.62;77.57
55187;BME280;55457;52.002;5.464;2023-10-13T02:23:22;100792.47;;;21.63;77.38
55187;BME280;55457;52.002;5.464;2023-10-13T02:25:47;100787.31;;;21.61;77.75
55187;BME280;55457;52.002;5.464;2023-10-13T02:28:13;100788.13;;;21.62;77.66
55187;BME280;55457;52.002;5.464;2023-10-13T02:30:43;100782.94;;;21.60;77.70
55187;BME280;55457;52.002;5.464;2023-10-13T02:33:14;100771.84;;;21.62;77.51
55187;BME280;55457;52.002;5.464;2023-10-13T02:35:43;100772.69;;;21.62;77.20
55187;BME280;55457;52.002;5.464;2023-10-13T02:38:21;100772.69;;;21.62;77.51
55187;BME280;55457;52.002;5.464;2023-10-13T02:41:01;100766.16;;;21.63;77.32
55187;BME280;55457;52.002;5.464;2023-10-13T02:43:34;100753.69;;;21.62;77.20
55187;BME280;55457;52.002;5.464;2023-10-13T02:45:59;100743.41;;;21.65;77.36
55187;BME280;55457;52.002;5.464;2023-10-13T02:48:26;100734.72;;;21.62;77.11
55187;BME280;55457;52.002;5.464;2023-10-13T02:50:58;100733.63;;;21.63;77.32
55187;BME280;55457;52.002;5.464;2023-10-13T02:53:27;100736.91;;;21.66;77.07
55187;BME280;55457;52.002;5.464;2023-10-13T02:55:54;100724.41;;;21.65;77.02
55187;BME280;55457;52.002;5.464;2023-10-13T02:58:21;100710.84;;;21.65;76.87
55187;BME280;55457;52.002;5.464;2023-10-13T03:00:47;100716.28;;;21.65;77.21
55187;BME280;55457;52.002;5.464;2023-10-13T03:03:12;100707.06;;;21.66;77.06
55187;BME280;55457;52.002;5.464;2023-10-13T03:05:43;100696.22;;;21.66;77.12
55187;BME280;55457;52.002;5.464;2023-10-13T03:08:08;100685.38;;;21.66;77.28
55187;BME280;55457;52.002;5.464;2023-10-13T03:10:36;100679.13;;;21.65;77.26
55187;BME280;55457;52.002;5.464;2023-10-13T03:13:05;100679.94;;;21.66;77.27
55187;BME280;55457;52.002;5.464;2023-10-13T03:15:33;100662.03;;;21.65;76.86
55187;BME280;55457;52.002;5.464;2023-10-13T03:18:00;100665.31;;;21.67;77.10
55187;BME280;55457;52.002;5.464;2023-10-13T03:20:26;100665.31;;;21.67;77.28
55187;BME280;55457;52.002;5.464;2023-10-13T03:22:58;100661.78;;;21.66;77.15
55187;BME280;55457;52.002;5.464;2023-10-13T03:25:25;100665.31;;;21.67;76.89
55187;BME280;55457;52.002;5.464;2023-10-13T03:28:02;100676.19;;;21.67;76.79
55187;BME280;55457;52.002;5.464;2023-10-13T03:30:30;100659.91;;;21.67;76.99
55187;BME280;55457;52.002;5.464;2023-10-13T03:33:09;100673.47;;;21.67;76.85
55187;BME280;55457;52.002;5.464;2023-10-13T03:35:39;100671.56;;;21.67;77.11
55187;BME280;55457;52.002;5.464;2023-10-13T03:38:09;100632.78;;;21.67;77.10
55187;BME280;55457;52.002;5.464;2023-10-13T03:40:50;100639.84;;;21.68;76.84
55187;BME280;55457;52.002;5.464;2023-10-13T03:43:33;100632.78;;;21.67;77.01
55187;BME280;55457;52.002;5.464;2023-10-13T03:46:00;100627.34;;;21.67;76.74
55187;BME280;55457;52.002;5.464;2023-10-13T03:48:33;100602.94;;;21.67;76.74
55187;BME280;55457;52.002;5.464;2023-10-13T03:51:05;100600.78;;;21.69;76.60
55187;BME280;55457;52.002;5.464;2023-10-13T03:53:41;100585.59;;;21.68;77.19
55187;BME280;55457;52.002;5.464;2023-10-13T03:56:20;100577.69;;;21.66;76.85
55187;BME280;55457;52.002;5.464;2023-10-13T03:59:05;100586.69;;;21.67;76.78
55187;BME280;55457;52.002;5.464;2023-10-13T04:01:37;100580.19;;;21.68;76.94
55187;BME280;55457;52.002;5.464;2023-10-13T04:04:12;100568.50;;;21.67;77.05
55187;BME280;55457;52.002;5.464;2023-10-13T04:06:39;100551.44;;;21.67;76.93
55187;BME280;55457;52.002;5.464;2023-10-13T04:09:17;100553.06;;;21.68;77.01
55187;BME280;55457;52.002;5.464;2023-10-13T04:11:58;100545.16;;;21.66;77.16
55187;BME280;55457;52.002;5.464;2023-10-13T04:14:34;100544.09;;;21.67;76.92
55187;BME280;55457;52.002;5.464;2023-10-13T04:17:18;100544.09;;;21.67;76.94
55187;BME280;55457;52.002;5.464;2023-10-13T04:19:54;100531.34;;;21.68;76.99
55187;BME280;55457;52.002;5.464;2023-10-13T04:22:42;100518.88;;;21.67;76.98
55187;BME280;55457;52.002;5.464;2023-10-13T04:28:06;100518.63;;;21.68;76.99
55187;BME280;55457;52.002;5.464;2023-10-13T04:30:51;100504.25;;;21.68;77.01
55187;BME280;55457;52.002;5.464;2023-10-13T04:33:36;100514.28;;;21.67;76.61
55187;BME280;55457;52.002;5.464;2023-10-13T04:36:05;100508.03;;;21.67;76.92
55187;BME280;55457;52.002;5.464;2023-10-13T04:38:45;100486.34;;;21.67;76.95
55187;BME280;55457;52.002;5.464;2023-10-13T04:41:40;100491.75;;;21.67;76.84
55187;BME280;55457;52.002;5.464;2023-10-13T04:44:16;100480.91;;;21.67;76.94
55187;BME280;55457;52.002;5.464;2023-10-13T04:47:01;100479.00;;;21.67;76.63
55187;BME280;55457;52.002;5.464;2023-10-13T04:49:30;100497.19;;;21.67;77.15
55187;BME280;55457;52.002;5.464;2023-10-13T04:52:11;100491.75;;;21.67;77.05
55187;BME280;55457;52.002;5.464;2023-10-13T04:57:19;100484.69;;;21.66;76.64
55187;BME280;55457;52.002;5.464;2023-10-13T04:59:51;100487.38;;;21.66;76.83
55187;BME280;55457;52.002;5.464;2023-10-13T05:02:29;100472.19;;;21.65;77.48
55187;BME280;55457;52.002;5.464;2023-10-13T05:05:10;100464.31;;;21.58;78.54
55187;BME280;55457;52.002;5.464;2023-10-13T05:07:51;100452.06;;;21.55;78.70
55187;BME280;55457;52.002;5.464;2023-10-13T05:10:37;100455.84;;;21.54;78.39
55187;BME280;55457;52.002;5.464;2023-10-13T05:13:21;100453.97;;;21.55;77.89
55187;BME280;55457;52.002;5.464;2023-10-13T05:16:06;100463.72;;;21.56;77.89
55187;BME280;55457;52.002;5.464;2023-10-13T05:18:50;100450.44;;;21.54;79.24
55187;BME280;55457;52.002;5.464;2023-10-13T05:21:34;100456.41;;;21.51;79.56
55187;BME280;55457;52.002;5.464;2023-10-13T05:24:18;100459.56;;;21.43;81.02
55187;BME280;55457;52.002;5.464;2023-10-13T05:27:02;100447.91;;;21.43;80.70
55187;BME280;55457;52.002;5.464;2023-10-13T05:29:47;100442.75;;;21.41;80.70
55187;BME280;55457;52.002;5.464;2023-10-13T05:32:31;100443.28;;;21.38;80.60
55187;BME280;55457;52.002;5.464;2023-10-13T05:35:15;100436.78;;;21.39;80.91
55187;BME280;55457;52.002;5.464;2023-10-13T05:38:00;100440.06;;;21.41;80.02
55187;BME280;55457;52.002;5.464;2023-10-13T05:40:55;100432.47;;;21.43;80.19
55187;BME280;55457;52.002;5.464;2023-10-13T05:43:44;100429.50;;;21.45;79.88
55187;BME280;55457;52.002;5.464;2023-10-13T05:46:28;100423.81;;;21.46;79.91
55187;BME280;55457;52.002;5.464;2023-10-13T05:49:04;100426.53;;;21.46;80.08
55187;BME280;55457;52.002;5.464;2023-10-13T05:51:42;100415.94;;;21.45;80.59
55187;BME280;55457;52.002;5.464;2023-10-13T05:54:32;100416.50;;;21.47;79.87
55187;BME280;55457;52.002;5.464;2023-10-13T05:57:15;100414.59;;;21.47;79.52
55187;BME280;55457;52.002;5.464;2023-10-13T05:59:59;100430.59;;;21.49;79.68
55187;BME280;55457;52.002;5.464;2023-10-13T06:02:43;100420.34;;;21.51;79.14
55187;BME280;55457;52.002;5.464;2023-10-13T06:05:27;100423.84;;;21.51;79.13
55187;BME280;55457;52.002;5.464;2023-10-13T06:08:11;100427.38;;;21.52;79.84
55187;BME280;55457;52.002;5.464;2023-10-13T06:11:02;100418.44;;;21.51;79.80
55187;BME280;55457;52.002;5.464;2023-10-13T06:13:48;100402.16;;;21.51;79.60
55187;BME280;55457;52.002;5.464;2023-10-13T06:16:32;100391.31;;;21.51;79.48
55187;BME280;55457;52.002;5.464;2023-10-13T06:19:16;100389.44;;;21.52;79.14
55187;BME280;55457;52.002;5.464;2023-10-13T06:22:00;100380.22;;;21.53;79.17
55187;BME280;55457;52.002;5.464;2023-10-13T06:24:44;100366.66;;;21.53;78.95
55187;BME280;55457;52.002;5.464;2023-10-13T06:27:28;100362.84;;;21.54;79.05
55187;BME280;55457;52.002;5.464;2023-10-13T06:30:12;100368.28;;;21.54;78.96
55187;BME280;55457;52.002;5.464;2023-10-13T06:32:37;100369.09;;;21.54;78.97
55187;BME280;55457;52.002;5.464;2023-10-13T06:35:05;100368.28;;;21.54;78.98
55187;BME280;55457;52.002;5.464;2023-10-13T06:37:32;100370.72;;;21.55;79.00
55187;BME280;55457;52.002;5.464;2023-10-13T06:40:00;100359.88;;;21.55;78.73
55187;BME280;55457;52.002;5.464;2023-10-13T06:42:33;100362.59;;;21.55;79.03
55187;BME280;55457;52.002;5.464;2023-10-13T06:45:08;100353.41;;;21.56;78.99
55187;BME280;55457;52.002;5.464;2023-10-13T06:47:36;100359.88;;;21.55;78.99
55187;BME280;55457;52.002;5.464;2023-10-13T06:50:14;100373.19;;;21.57;78.86
55187;BME280;55457;52.002;5.464;2023-10-13T06:52:48;100366.94;;;21.56;78.65
55187;BME280;55457;52.002;5.464;2023-10-13T06:55:13;100356.09;;;21.56;78.81
55187;BME280;55457;52.002;5.464;2023-10-13T06:57:54;100356.91;;;21.57;78.56
55187;BME280;55457;52.002;5.464;2023-10-13T07:00:25;100348.50;;;21.58;78.77
55187;BME280;55457;52.002;5.464;2023-10-13T07:02:56;100345.00;;;21.58;78.90
55187;BME280;55457;52.002;5.464;2023-10-13T07:05:36;100331.72;;;21.56;78.96
55187;BME280;55457;52.002;5.464;2023-10-13T07:08:03;100323.00;;;21.54;78.80
55187;BME280;55457;52.002;5.464;2023-10-13T07:10:30;100337.94;;;21.57;78.99
55187;BME280;55457;52.002;5.464;2023-10-13T07:12:58;100328.16;;;21.56;78.94
55187;BME280;55457;52.002;5.464;2023-10-13T07:15:26;100331.72;;;21.56;78.92
55187;BME280;55457;52.002;5.464;2023-10-13T07:17:53;100307.31;;;21.56;78.78
55187;BME280;55457;52.002;5.464;2023-10-13T07:20:25;100296.47;;;21.56;79.01
55187;BME280;55457;52.002;5.464;2023-10-13T07:22:59;100294.28;;;21.58;79.14
55187;BME280;55457;52.002;5.464;2023-10-13T07:25:37;100294.28;;;21.58;79.10
55187;BME280;55457;52.002;5.464;2023-10-13T07:28:03;100283.44;;;21.58;79.04
55187;BME280;55457;52.002;5.464;2023-10-13T07:30:29;100275.03;;;21.60;78.86
55187;BME280;55457;52.002;5.464;2023-10-13T07:33:05;100275.03;;;21.60;78.82
55187;BME280;55457;52.002;5.464;2023-10-13T07:35:31;100275.84;;;21.60;78.76
55187;BME280;55457;52.002;5.464;2023-10-13T07:38:01;100283.16;;;21.60;78.69
55187;BME280;55457;52.002;5.464;2023-10-13T07:40:27;100282.06;;;21.61;78.85
55187;BME280;55457;52.002;5.464;2023-10-13T07:42:53;100283.44;;;21.58;80.04
55187;BME280;55457;52.002;5.464;2023-10-13T07:45:29;100289.38;;;21.55;80.78
55187;BME280;55457;52.002;5.464;2023-10-13T07:48:05;100285.56;;;21.46;82.24
55187;BME280;55457;52.002;5.464;2023-10-13T07:50:47;100290.16;;;21.41;82.68
55187;BME280;55457;52.002;5.464;2023-10-13T07:53:14;100281.16;;;21.30;84.47
55187;BME280;55457;52.002;5.464;2023-10-13T07:55:48;100276.69;;;21.19;84.94
55187;BME280;55457;52.002;5.464;2023-10-13T07:58:21;100289.41;;;21.13;85.68
55187;BME280;55457;52.002;5.464;2023-10-13T08:00:50;100275.56;;;21.09;86.08
55187;BME280;55457;52.002;5.464;2023-10-13T08:03:20;100278.81;;;21.11;85.79
55187;BME280;55457;52.002;5.464;2023-10-13T08:06:00;100270.72;;;21.17;84.59
55187;BME280;55457;52.002;5.464;2023-10-13T08:08:45;100273.19;;;21.23;84.13
55187;BME280;55457;52.002;5.464;2023-10-13T08:11:19;100276.22;;;21.27;84.54
55187;BME280;55457;52.002;5.464;2023-10-13T08:13:51;100274.03;;;21.29;84.17
55187;BME280;55457;52.002;5.464;2023-10-13T08:16:25;100274.84;;;21.29;84.81
55187;BME280;55457;52.002;5.464;2023-10-13T08:19:13;100269.75;;;21.33;83.96
55187;BME280;55457;52.002;5.464;2023-10-13T08:21:41;100265.44;;;21.37;83.64
55187;BME280;55457;52.002;5.464;2023-10-13T08:24:14;100274.13;;;21.39;83.44
55187;BME280;55457;52.002;5.464;2023-10-13T08:26:40;100254.63;;;21.42;83.73
55187;BME280;55457;52.002;5.464;2023-10-13T08:29:24;100245.97;;;21.45;82.74
55187;BME280;55457;52.002;5.464;2023-10-13T08:31:55;100248.41;;;21.47;82.71
55187;BME280;55457;52.002;5.464;2023-10-13T08:34:33;100252.75;;;21.48;82.46
55187;BME280;55457;52.002;5.464;2023-10-13T08:37:11;100254.09;;;21.50;82.11
55187;BME280;55457;52.002;5.464;2023-10-13T08:39:49;100240.31;;;21.52;82.27
55187;BME280;55457;52.002;5.464;2023-10-13T08:42:44;100244.91;;;21.51;82.49
55187;BME280;55457;52.002;5.464;2023-10-13T08:45:11;100242.75;;;21.53;81.97
55187;BME280;55457;52.002;5.464;2023-10-13T08:48:07;100256.84;;;21.55;81.91
55187;BME280;55457;52.002;5.464;2023-10-13T08:50:49;100252.22;;;21.56;82.35
55187;BME280;55457;52.002;5.464;2023-10-13T08:53:25;100232.72;;;21.54;82.44
55187;BME280;55457;52.002;5.464;2023-10-13T08:56:07;100227.28;;;21.54;82.36
55187;BME280;55457;52.002;5.464;2023-10-13T08:58:42;100213.47;;;21.55;82.25
55187;BME280;55457;52.002;5.464;2023-10-13T09:01:28;100219.44;;;21.57;82.28
55187;BME280;55457;52.002;5.464;2023-10-13T09:04:22;100219.19;;;21.59;82.20
55187;BME280;55457;52.002;5.464;2023-10-13T09:07:03;100217.28;;;21.59;81.87
55187;BME280;55457;52.002;5.464;2023-10-13T09:09:54;100225.41;;;21.59;81.94
55187;BME280;55457;52.002;5.464;2023-10-13T09:12:20;100225.41;;;21.59;82.10
55187;BME280;55457;52.002;5.464;2023-10-13T09:14:55;100204.00;;;21.58;81.96
55187;BME280;55457;52.002;5.464;2023-10-13T09:17:29;100217.56;;;21.58;84.05
55187;BME280;55457;52.002;5.464;2023-10-13T09:20:09;100219.19;;;21.59;84.55
55187;BME280;55457;52.002;5.464;2023-10-13T09:22:47;100213.47;;;21.60;85.91
55187;BME280;55457;52.002;5.464;2023-10-13T09:25:34;100212.41;;;21.61;85.48
55187;BME280;55457;52.002;5.464;2023-10-13T09:28:14;100222.69;;;21.59;84.60
55187;BME280;55457;52.002;5.464;2023-10-13T09:30:53;100211.84;;;21.59;84.83
55187;BME280;55457;52.002;5.464;2023-10-13T09:33:23;100203.72;;;21.59;84.91
55187;BME280;55457;52.002;5.464;2023-10-13T09:36:04;100218.66;;;21.62;84.42
55187;BME280;55457;52.002;5.464;2023-10-13T09:38:33;100210.25;;;21.63;84.17
55187;BME280;55457;52.002;5.464;2023-10-13T09:40:59;100205.63;;;21.64;84.26
55187;BME280;55457;52.002;5.464;2023-10-13T09:43:43;100185.31;;;21.61;84.27
55187;BME280;55457;52.002;5.464;2023-10-13T09:46:10;100190.72;;;21.61;84.23
55187;BME280;55457;52.002;5.464;2023-10-13T09:48:46;100201.31;;;21.63;83.71
55187;BME280;55457;52.002;5.464;2023-10-13T09:51:14;100172.56;;;21.62;84.04
55187;BME280;55457;52.002;5.464;2023-10-13T09:53:40;100176.09;;;21.62;83.73
55187;BME280;55457;52.002;5.464;2023-10-13T09:56:16;100158.19;;;21.61;83.68
55187;BME280;55457;52.002;5.464;2023-10-13T09:58:55;100159.25;;;21.60;83.82
55187;BME280;55457;52.002;5.464;2023-10-13T10:01:24;100161.97;;;21.60;83.50
55187;BME280;55457;52.002;5.464;2023-10-13T10:04:13;100158.19;;;21.61;83.39
55187;BME280;55457;52.002;5.464;2023-10-13T10:06:54;100170.38;;;21.64;83.30
55187;BME280;55457;52.002;5.464;2023-10-13T10:09:32;100159.25;;;21.66;83.28
55187;BME280;55457;52.002;5.464;2023-10-13T10:15:01;100141.38;;;21.65;82.85
55187;BME280;55457;52.002;5.464;2023-10-13T10:17:41;100143.00;;;21.66;82.73
55187;BME280;55457;52.002;5.464;2023-10-13T10:20:08;100138.38;;;21.66;82.66
55187;BME280;55457;52.002;5.464;2023-10-13T10:22:58;100140.28;;;21.66;82.54
55187;BME280;55457;52.002;5.464;2023-10-13T10:25:34;100143.81;;;21.66;82.52
55187;BME280;55457;52.002;5.464;2023-10-13T10:28:01;100133.78;;;21.67;82.18
55187;BME280;55457;52.002;5.464;2023-10-13T10:30:32;100126.72;;;21.66;82.46
55187;BME280;55457;52.002;5.464;2023-10-13T10:33:05;100131.34;;;21.65;82.08
55187;BME280;55457;52.002;5.464;2023-10-13T10:35:59;100132.94;;;21.66;82.17
55187;BME280;55457;52.002;5.464;2023-10-13T10:38:25;100123.75;;;21.67;82.04
55187;BME280;55457;52.002;5.464;2023-10-13T10:40:55;100121.84;;;21.68;81.69
55187;BME280;55457;52.002;5.464;2023-10-13T10:43:28;100122.41;;;21.70;81.67
55187;BME280;55457;52.002;5.464;2023-10-13T10:46:13;100122.13;;;21.71;81.48
55187;BME280;55457;52.002;5.464;2023-10-13T10:48:39;100126.47;;;21.72;81.90
55187;BME280;55457;52.002;5.464;2023-10-13T10:51:12;100120.25;;;21.72;81.32
55187;BME280;55457;52.002;5.464;2023-10-13T10:53:50;100121.88;;;21.73;81.62
55187;BME280;55457;52.002;5.464;2023-10-13T10:56:18;100108.03;;;21.69;81.86
55187;BME280;55457;52.002;5.464;2023-10-13T10:58:55;100109.63;;;21.60;81.29
55187;BME280;55457;52.002;5.464;2023-10-13T11:01:22;100105.56;;;21.52;81.58
55187;BME280;55457;52.002;5.464;2023-10-13T11:03:55;100092.28;;;21.46;81.85
55187;BME280;55457;52.002;5.464;2023-10-13T11:06:49;100110.97;;;21.42;82.24
55187;BME280;55457;52.002;5.464;2023-10-13T11:09:41;100093.63;;;21.43;82.50
55187;BME280;55457;52.002;5.464;2023-10-13T11:15:08;100089.81;;;21.49;82.01
55187;BME280;55457;52.002;5.464;2023-10-13T11:17:48;100073.03;;;21.52;82.37
55187;BME280;55457;52.002;5.464;2023-10-13T11:20:17;100060.00;;;21.54;82.18
55187;BME280;55457;52.002;5.464;2023-10-13T11:22:50;100071.41;;;21.56;82.33
55187;BME280;55457;52.002;5.464;2023-10-13T11:25:22;100078.19;;;21.59;82.19
55187;BME280;55457;52.002;5.464;2023-10-13T11:27:48;100062.72;;;21.59;81.78
55187;BME280;55457;52.002;5.464;2023-10-13T11:30:19;100044.31;;;21.61;81.10
55187;BME280;55457;52.002;5.464;2023-10-13T11:35:23;100053.50;;;21.60;81.00
55187;BME280;55457;52.002;5.464;2023-10-13T11:37:49;100045.94;;;21.62;80.98
55187;BME280;55457;52.002;5.464;2023-10-13T11:40:35;100036.69;;;21.63;81.25
55187;BME280;55457;52.002;5.464;2023-10-13T11:43:24;100041.03;;;21.65;81.18
55187;BME280;55457;52.002;5.464;2023-10-13T11:45:49;100040.75;;;21.66;79.93
55187;BME280;55457;52.002;5.464;2023-10-13T11:48:37;99993.31;;;21.63;79.37
55187;BME280;55457;52.002;5.464;2023-10-13T11:51:10;100030.75;;;21.61;77.06
55187;BME280;55457;52.002;5.464;2023-10-13T11:53:45;100041.59;;;21.56;76.29
55187;BME280;55457;52.002;5.464;2023-10-13T11:56:17;100021.81;;;21.51;77.27
55187;BME280;55457;52.002;5.464;2023-10-13T11:58:42;100008.50;;;21.49;77.51
55187;BME280;55457;52.002;5.464;2023-10-13T12:01:08;100055.16;;;21.51;78.06
55187;BME280;55457;52.002;5.464;2023-10-13T12:03:42;100023.41;;;21.52;77.21
55187;BME280;55457;52.002;5.464;2023-10-13T12:06:29;100044.31;;;21.51;76.53
55187;BME280;55457;52.002;5.464;2023-10-13T12:09:05;100055.16;;;21.51;77.27
55187;BME280;55457;52.002;5.464;2023-10-13T12:11:37;100040.22;;;21.54;77.52
55187;BME280;55457;52.002;5.464;2023-10-13T12:14:13;100045.13;;;21.52;75.55
55187;BME280;55457;52.002;5.464;2023-10-13T12:16:53;100047.00;;;21.46;76.47
55187;BME280;55457;52.002;5.464;2023-10-13T12:19:22;100033.44;;;21.41;75.85
55187;BME280;55457;52.002;5.464;2023-10-13T12:21:56;100045.09;;;21.36;76.23
55187;BME280;55457;52.002;5.464;2023-10-13T12:24:22;100042.63;;;21.35;75.42
55187;BME280;55457;52.002;5.464;2023-10-13T12:27:06;100031.81;;;21.30;75.51
55187;BME280;55457;52.002;5.464;2023-10-13T12:29:51;100039.63;;;21.26;75.92
55187;BME280;55457;52.002;5.464;2023-10-13T12:32:17;100025.25;;;21.26;75.88
55187;BME280;55457;52.002;5.464;2023-10-13T12:34:48;99993.84;;;21.25;75.39
55187;BME280;55457;52.002;5.464;2023-10-13T12:37:29;100001.69;;;21.26;75.33
55187;BME280;55457;52.002;5.464;2023-10-13T12:40:08;100001.69;;;21.26;75.67
55187;BME280;55457;52.002;5.464;2023-10-13T12:42:53;100013.34;;;21.27;76.54
55187;BME280;55457;52.002;5.464;2023-10-13T12:48:24;100010.63;;;21.27;76.13
55187;BME280;55457;52.002;5.464;2023-10-13T12:51:08;100016.56;;;21.24;76.78
55187;BME280;55457;52.002;5.464;2023-10-13T12:56:13;100016.56;;;21.24;77.05
55187;BME280;55457;52.002;5.464;2023-10-13T12:58:38;100018.22;;;21.25;77.53
55187;BME280;55457;52.002;5.464;2023-10-13T13:01:04;100031.81;;;21.30;78.07
55187;BME280;55457;52.002;5.464;2023-10-13T13:03:32;100032.88;;;21.34;78.23
55187;BME280;55457;52.002;5.464;2023-10-13T13:05:58;100016.09;;;21.37;77.78
55187;BME280;55457;52.002;5.464;2023-10-13T13:08:23;100019.09;;;21.41;77.88
55187;BME280;55457;52.002;5.464;2023-10-13T13:10:49;100059.19;;;21.44;78.36
55187;BME280;55457;52.002;5.464;2023-10-13T13:13:14;100016.63;;;21.44;78.30
55187;BME280;55457;52.002;5.464;2023-10-13T13:15:42;100021.53;;;21.47;78.12
55187;BME280;55457;52.002;5.464;2023-10-13T13:18:07;100032.91;;;21.49;78.50
55187;BME280;55457;52.002;5.464;2023-10-13T13:20:37;100036.69;;;21.53;78.44
55187;BME280;55457;52.002;5.464;2023-10-13T13:23:04;100024.47;;;21.56;78.73
55187;BME280;55457;52.002;5.464;2023-10-13T13:25:30;100031.28;;;21.53;78.46
55187;BME280;55457;52.002;5.464;2023-10-13T13:27:57;100018.25;;;21.55;78.75
55187;BME280;55457;52.002;5.464;2023-10-13T13:30:24;99992.50;;;21.53;79.02
55187;BME280;55457;52.002;5.464;2023-10-13T13:32:55;100001.19;;;21.55;79.07
55187;BME280;55457;52.002;5.464;2023-10-13T13:35:21;99988.19;;;21.57;79.08
55187;BME280;55457;52.002;5.464;2023-10-13T13:37:46;100006.59;;;21.60;79.21
55187;BME280;55457;52.002;5.464;2023-10-13T13:40:12;99986.00;;;21.59;78.80
55187;BME280;55457;52.002;5.464;2023-10-13T13:42:44;99995.22;;;21.58;78.77
55187;BME280;55457;52.002;5.464;2023-10-13T13:45:17;99992.50;;;21.53;78.96